Disclaimer

Please do not use the information listed here in-flight or in-navigation, as they are not provided to us by the airports but are provided by volunteers, so they might be outdated.

Search


Regions


Airport information page

Radio informations:
CHAMBERY TWR - 118.3 MHz
CHAMBERY ATIS - 124.575 MHz
CHAMBERY APP - 123.7 MHz

Airport informations:
Latitude: 45° 38' 16.98" N
Longitude: 005° 52' 48.81" E
Elevation: 779 feet - 237 meters
Operating hours: Remarks
Operating agency: Military-civil joint use airport
Timezone: UTC+1(+2DT) - Last Sunday in March to last Sunday in October
Fuel: Jet A1+, Jet A1 with icing inhibitor.

Jet A1, without icing nhibitor.

100/130 MIL Spec, low lead, aviation gasoline (BLUE)

Runway information:
18/36 - 6628 x 148 feet< - >2020 x 45 meters

Recent METARs:
LFLB 151730Z AUTO VRB01KT 8000 NSC 03/M01 Q1020 NOSIG
LFLB 151800Z AUTO 19001KT 8000 OVC090 03/M00 Q1020 NOSIG
LFLB 151830Z AUTO 00000KT 8000 OVC086 02/00 Q1020 TEMPO 4000 -RA BKN014

Airport on the map: